createdAt,value
2018-11-21T00:00:41.403Z,16.69
2018-11-21T00:01:41.384Z,16.63
2018-11-21T00:02:43.498Z,16.65
2018-11-21T00:03:41.368Z,16.67
2018-11-21T00:04:41.370Z,16.62
2018-11-21T00:05:41.339Z,16.66
2018-11-21T00:06:41.357Z,16.78
2018-11-21T00:07:41.323Z,16.66
2018-11-21T00:08:41.725Z,16.65
2018-11-21T00:09:41.301Z,16.67
2018-11-21T00:10:41.293Z,16.75
2018-11-21T00:11:41.275Z,16.70
2018-11-21T00:12:41.281Z,16.75
2018-11-21T00:13:41.268Z,16.73
2018-11-21T00:14:41.699Z,16.70
2018-11-21T00:15:41.237Z,16.73
2018-11-21T00:16:41.270Z,16.67
2018-11-21T00:17:41.260Z,16.77
2018-11-21T00:18:41.214Z,16.73
2018-11-21T00:19:41.214Z,16.77
2018-11-21T00:20:41.521Z,16.73
2018-11-21T00:21:41.172Z,16.80
2018-11-21T00:22:41.187Z,16.82
2018-11-21T00:23:41.154Z,16.80
2018-11-21T00:24:41.138Z,16.82
2018-11-21T00:25:41.131Z,16.85
2018-11-21T00:26:43.123Z,16.87
2018-11-21T00:27:41.104Z,16.84
2018-11-21T00:28:41.093Z,16.80
2018-11-21T00:29:41.080Z,16.82
2018-11-21T00:30:41.058Z,16.80
2018-11-21T00:31:41.078Z,16.87
2018-11-21T00:32:41.431Z,16.87
2018-11-21T00:33:41.043Z,16.85
2018-11-21T00:34:41.008Z,16.85
2018-11-21T00:35:41.004Z,16.82
2018-11-21T00:36:41.029Z,16.88
2018-11-21T00:37:40.980Z,16.91
2018-11-21T00:38:42.945Z,16.87
2018-11-21T00:39:41.002Z,16.84
2018-11-21T00:40:40.939Z,16.88
2018-11-21T00:41:40.960Z,16.92
2018-11-21T00:42:46.423Z,16.87
2018-11-21T00:43:40.923Z,16.95
2018-11-21T00:44:41.565Z,16.92
2018-11-21T00:45:40.912Z,17.00
2018-11-21T00:46:40.908Z,16.92
2018-11-21T00:47:40.920Z,17.00
2018-11-21T00:48:40.891Z,16.92
2018-11-21T00:49:40.873Z,16.96
2018-11-21T00:50:41.114Z,16.92
2018-11-21T00:51:40.837Z,16.92
2018-11-21T00:52:40.839Z,16.98
2018-11-21T00:53:40.817Z,16.99
2018-11-21T00:54:40.812Z,16.87
2018-11-21T00:55:42.912Z,16.95
2018-11-21T00:56:40.764Z,16.98
2018-11-21T00:57:40.761Z,16.90
2018-11-21T00:58:40.769Z,16.92
2018-11-21T00:59:40.757Z,16.91
2018-11-21T01:00:40.740Z,16.90
2018-11-21T01:01:42.828Z,16.88
2018-11-21T01:02:40.716Z,16.91
2018-11-21T01:03:40.681Z,16.99
2018-11-21T01:04:40.708Z,16.99
2018-11-21T01:05:40.734Z,16.95
2018-11-21T01:06:40.690Z,16.96
2018-11-21T01:07:41.036Z,16.99
2018-11-21T01:08:40.661Z,16.99
2018-11-21T01:09:40.651Z,17.00
2018-11-21T01:10:40.617Z,16.99
2018-11-21T01:11:40.608Z,17.05
2018-11-21T01:12:42.845Z,16.96
2018-11-21T01:13:40.607Z,17.06
2018-11-21T01:14:40.593Z,17.07
2018-11-21T01:15:40.574Z,17.02
2018-11-21T01:16:40.560Z,16.96
2018-11-21T01:17:40.538Z,17.03
2018-11-21T01:18:40.899Z,17.06
2018-11-21T01:19:40.532Z,16.98
2018-11-21T01:20:40.508Z,16.98
2018-11-21T01:21:40.509Z,17.03
2018-11-21T01:22:40.535Z,17.02
2018-11-21T01:23:40.484Z,17.07
2018-11-21T01:24:42.385Z,16.96
2018-11-21T01:25:40.507Z,16.95
2018-11-21T01:26:40.462Z,16.96
2018-11-21T01:27:40.428Z,17.03
2018-11-21T01:28:40.439Z,17.02
2018-11-21T01:29:40.425Z,17.10
2018-11-21T01:30:40.863Z,17.05
2018-11-21T01:31:40.384Z,17.10
2018-11-21T01:32:40.400Z,17.07
2018-11-21T01:33:40.369Z,17.03
2018-11-21T01:34:40.361Z,16.95
2018-11-21T01:35:40.357Z,16.98
2018-11-21T01:36:42.451Z,16.98
2018-11-21T01:37:40.336Z,16.99
2018-11-21T01:38:40.327Z,16.99
2018-11-21T01:39:40.315Z,17.02
2018-11-21T01:40:40.349Z,17.02
2018-11-21T01:41:40.284Z,16.99
2018-11-21T01:42:40.728Z,17.00
2018-11-21T01:43:40.265Z,17.00
2018-11-21T01:44:40.253Z,16.96
2018-11-21T01:45:40.284Z,16.98
2018-11-21T01:46:40.221Z,17.06
2018-11-21T01:47:40.202Z,17.02
2018-11-21T01:48:42.067Z,17.12
2018-11-21T01:49:40.220Z,17.06
2018-11-21T01:50:40.195Z,17.12
2018-11-21T01:51:40.169Z,17.06
2018-11-21T01:52:40.185Z,17.09
2018-11-21T01:53:40.201Z,17.06
2018-11-21T01:54:42.151Z,17.10
2018-11-21T01:55:40.125Z,17.12
2018-11-21T01:56:40.136Z,17.10
2018-11-21T01:57:40.120Z,17.12
2018-11-21T01:58:40.090Z,17.06
2018-11-21T01:59:40.093Z,17.10
2018-11-21T02:00:42.076Z,16.98
2018-11-21T02:01:40.064Z,17.09
2018-11-21T02:02:40.058Z,17.10
2018-11-21T02:03:40.036Z,17.00
2018-11-21T02:04:40.046Z,17.09
2018-11-21T02:05:40.070Z,17.10
2018-11-21T02:06:42.570Z,17.15
2018-11-21T02:07:40.009Z,17.12
2018-11-21T02:08:39.983Z,16.99
2018-11-21T02:09:39.978Z,17.02
2018-11-21T02:10:39.977Z,17.06
2018-11-21T02:11:39.992Z,17.07
2018-11-21T02:12:42.099Z,17.15
2018-11-21T02:13:39.926Z,17.05
2018-11-21T02:14:39.932Z,17.10
2018-11-21T02:15:39.904Z,17.15
2018-11-21T02:16:39.914Z,17.12
2018-11-21T02:17:39.900Z,17.17
2018-11-21T02:18:40.175Z,17.10
2018-11-21T02:19:39.876Z,17.14
2018-11-21T02:20:39.865Z,17.14
2018-11-21T02:21:39.841Z,17.17
2018-11-21T02:22:39.835Z,17.03
2018-11-21T02:23:42.155Z,17.14
2018-11-21T02:24:39.815Z,17.18
2018-11-21T02:25:39.804Z,17.17
2018-11-21T02:26:39.844Z,17.20
2018-11-21T02:27:39.799Z,17.21
2018-11-21T02:28:39.773Z,17.15
2018-11-21T02:29:40.754Z,17.18
2018-11-21T02:30:39.745Z,17.15
2018-11-21T02:31:39.729Z,17.18
2018-11-21T02:32:39.730Z,17.18
2018-11-21T02:33:39.708Z,17.17
2018-11-21T02:34:39.719Z,17.18
2018-11-21T02:35:43.503Z,17.20
2018-11-21T02:36:39.681Z,17.18
2018-11-21T02:37:39.672Z,17.10
2018-11-21T02:38:39.683Z,17.15
2018-11-21T02:39:39.652Z,17.05
2018-11-21T02:40:39.654Z,17.12
2018-11-21T02:41:41.734Z,17.07
2018-11-21T02:42:39.625Z,17.05
2018-11-21T02:43:39.613Z,17.17
2018-11-21T02:44:39.588Z,17.15
2018-11-21T02:45:39.602Z,17.05
2018-11-21T02:46:39.580Z,17.18
2018-11-21T02:47:40.208Z,17.17
2018-11-21T02:48:39.591Z,17.17
2018-11-21T02:49:39.557Z,17.22
2018-11-21T02:50:39.550Z,17.17
2018-11-21T02:51:39.564Z,17.15
2018-11-21T02:52:39.509Z,17.17
2018-11-21T02:53:39.860Z,17.15
2018-11-21T02:54:39.544Z,17.20
2018-11-21T02:55:39.494Z,17.21
2018-11-21T02:56:39.472Z,17.14
2018-11-21T02:57:39.448Z,17.28
2018-11-21T02:58:39.445Z,17.21
2018-11-21T02:59:41.653Z,17.22
2018-11-21T03:00:39.429Z,17.28
2018-11-21T03:01:39.404Z,17.20
2018-11-21T03:02:39.394Z,17.18
2018-11-21T03:03:39.400Z,17.20
2018-11-21T03:04:39.401Z,17.18
2018-11-21T03:05:42.835Z,17.21
2018-11-21T03:06:39.358Z,17.21
2018-11-21T03:07:39.361Z,17.21
2018-11-21T03:08:39.358Z,17.20
2018-11-21T03:09:39.327Z,17.20
2018-11-21T03:10:39.310Z,17.25
2018-11-21T03:11:41.399Z,17.15
2018-11-21T03:12:39.286Z,17.22
2018-11-21T03:13:39.288Z,17.18
2018-11-21T03:14:39.264Z,17.22
2018-11-21T03:15:39.275Z,17.22
2018-11-21T03:16:39.249Z,17.15
2018-11-21T03:17:39.590Z,17.22
2018-11-21T03:18:39.247Z,17.21
2018-11-21T03:19:39.235Z,17.24
2018-11-21T03:20:39.222Z,17.10
2018-11-21T03:21:39.202Z,17.15
2018-11-21T03:22:39.203Z,17.20
2018-11-21T03:23:41.122Z,17.15
2018-11-21T03:24:39.167Z,17.15
2018-11-21T03:25:39.175Z,17.14
2018-11-21T03:26:39.159Z,17.09
2018-11-21T03:27:39.146Z,17.05
2018-11-21T03:28:39.117Z,17.06
2018-11-21T03:29:42.718Z,16.98
2018-11-21T03:30:39.123Z,17.05
2018-11-21T03:31:39.094Z,17.07
2018-11-21T03:32:39.094Z,17.03
2018-11-21T03:33:39.074Z,17.14
2018-11-21T03:34:39.068Z,17.06
2018-11-21T03:35:39.395Z,17.07
2018-11-21T03:36:39.042Z,17.07
2018-11-21T03:37:39.044Z,17.02
2018-11-21T03:38:39.023Z,17.03
2018-11-21T03:39:39.008Z,16.99
2018-11-21T03:40:38.992Z,17.10
2018-11-21T03:41:39.343Z,17.05
2018-11-21T03:42:38.975Z,17.03
2018-11-21T03:43:39.017Z,16.99
2018-11-21T03:44:38.949Z,16.96
2018-11-21T03:45:38.930Z,17.06
2018-11-21T03:46:40.906Z,16.98
2018-11-21T03:47:38.928Z,17.06
2018-11-21T03:48:38.917Z,17.05
2018-11-21T03:49:38.908Z,16.99
2018-11-21T03:50:38.875Z,17.09
2018-11-21T03:51:38.878Z,17.00
2018-11-21T03:52:39.217Z,17.00
2018-11-21T03:53:38.852Z,16.99
2018-11-21T03:54:38.834Z,16.95
2018-11-21T03:55:38.816Z,16.84
2018-11-21T03:56:38.822Z,16.91
2018-11-21T03:57:38.798Z,16.88
2018-11-21T03:58:39.539Z,16.85
2018-11-21T03:59:38.811Z,16.82
2018-11-21T04:00:38.772Z,16.84
2018-11-21T04:01:38.766Z,16.85
2018-11-21T04:02:38.758Z,16.85
2018-11-21T04:03:38.746Z,16.87
2018-11-21T04:04:40.939Z,16.87
2018-11-21T04:05:38.727Z,16.87
2018-11-21T04:06:38.704Z,16.85
2018-11-21T04:07:38.704Z,16.91
2018-11-21T04:08:42.473Z,16.80
2018-11-21T04:09:38.673Z,16.82
2018-11-21T04:10:39.186Z,16.81
2018-11-21T04:11:38.667Z,16.80
2018-11-21T04:12:38.656Z,16.85
2018-11-21T04:13:38.645Z,16.91
2018-11-21T04:14:38.629Z,16.82
2018-11-21T04:15:38.601Z,16.87
2018-11-21T04:16:40.760Z,16.92
2018-11-21T04:17:38.578Z,16.87
2018-11-21T04:18:38.565Z,16.82
2018-11-21T04:19:38.574Z,16.85
2018-11-21T04:20:38.547Z,16.84
2018-11-21T04:21:38.542Z,16.90
2018-11-21T04:22:38.906Z,16.84
2018-11-21T04:23:38.626Z,16.87
2018-11-21T04:24:38.631Z,16.90
2018-11-21T04:25:38.519Z,16.90
2018-11-21T04:26:38.619Z,16.85
2018-11-21T04:27:40.701Z,16.85
2018-11-21T04:28:38.571Z,16.73
2018-11-21T04:29:38.475Z,16.77
2018-11-21T04:30:38.459Z,16.80
2018-11-21T04:31:38.448Z,16.80
2018-11-21T04:32:38.448Z,16.80
2018-11-21T04:33:39.442Z,16.88
2018-11-21T04:34:38.400Z,16.77
2018-11-21T04:35:38.408Z,16.80
2018-11-21T04:36:38.408Z,16.75
2018-11-21T04:37:38.380Z,16.77
2018-11-21T04:38:38.372Z,16.69
2018-11-21T04:39:40.516Z,16.73
2018-11-21T04:40:38.342Z,16.67
2018-11-21T04:41:38.335Z,16.63
2018-11-21T04:42:38.332Z,16.72
2018-11-21T04:43:38.314Z,16.65
2018-11-21T04:44:38.295Z,16.72
2018-11-21T04:45:38.617Z,16.78
2018-11-21T04:46:38.262Z,16.77
2018-11-21T04:47:38.304Z,16.70
2018-11-21T04:48:38.250Z,16.84
2018-11-21T04:49:38.233Z,16.82
2018-11-21T04:50:38.232Z,16.80
2018-11-21T04:51:38.654Z,16.82
2018-11-21T04:52:38.212Z,16.80
2018-11-21T04:53:38.216Z,16.80
2018-11-21T04:54:38.184Z,16.72
2018-11-21T04:55:38.153Z,16.77
2018-11-21T04:56:38.163Z,16.70
2018-11-21T04:57:40.241Z,16.69
2018-11-21T04:58:38.180Z,16.73
2018-11-21T04:59:38.113Z,16.69
2018-11-21T05:00:38.128Z,16.69
2018-11-21T05:01:38.138Z,16.75
2018-11-21T05:02:38.109Z,16.77
2018-11-21T05:03:39.937Z,16.75
2018-11-21T05:04:38.122Z,16.73
2018-11-21T05:05:38.062Z,16.77
2018-11-21T05:06:38.031Z,16.80
2018-11-21T05:07:38.026Z,16.66
2018-11-21T05:08:38.067Z,16.72
2018-11-21T05:09:40.313Z,16.69
2018-11-21T05:10:38.007Z,16.70
2018-11-21T05:11:38.019Z,16.63
2018-11-21T05:12:37.962Z,16.66
2018-11-21T05:13:37.962Z,16.67
2018-11-21T05:14:37.998Z,16.67
2018-11-21T05:15:40.236Z,16.73
2018-11-21T05:16:37.932Z,16.75
2018-11-21T05:17:37.931Z,16.67
2018-11-21T05:18:37.906Z,16.67
2018-11-21T05:19:37.906Z,16.67
2018-11-21T05:20:37.888Z,16.73
2018-11-21T05:21:38.227Z,16.69
2018-11-21T05:22:37.880Z,16.70
2018-11-21T05:23:37.876Z,16.70
2018-11-21T05:24:37.830Z,16.78
2018-11-21T05:25:37.820Z,16.77
2018-11-21T05:26:37.835Z,16.72
2018-11-21T05:27:38.424Z,16.72
2018-11-21T05:28:37.839Z,16.69
2018-11-21T05:29:37.799Z,16.63
2018-11-21T05:30:37.824Z,16.67
2018-11-21T05:31:37.763Z,16.70
2018-11-21T05:32:37.761Z,16.72
2018-11-21T05:33:39.659Z,16.73
2018-11-21T05:34:37.743Z,16.77
2018-11-21T05:35:37.708Z,16.72
2018-11-21T05:36:37.726Z,16.73
2018-11-21T05:37:37.708Z,16.73
2018-11-21T05:38:37.693Z,16.82
2018-11-21T05:39:41.140Z,16.80
2018-11-21T05:40:37.652Z,16.75
2018-11-21T05:41:37.665Z,16.73
2018-11-21T05:42:37.640Z,16.69
2018-11-21T05:43:37.639Z,16.78
2018-11-21T05:44:37.674Z,16.62
2018-11-21T05:45:38.371Z,16.62
2018-11-21T05:46:37.602Z,16.65
2018-11-21T05:47:37.582Z,16.72
2018-11-21T05:48:37.571Z,16.54
2018-11-21T05:49:37.577Z,16.60
2018-11-21T05:50:37.569Z,16.52
2018-11-21T05:51:37.659Z,16.66
2018-11-21T05:52:37.555Z,16.66
2018-11-21T05:53:37.506Z,16.59
2018-11-21T05:54:37.519Z,16.66
2018-11-21T05:55:37.513Z,16.66
2018-11-21T05:56:39.705Z,16.63
2018-11-21T05:57:37.497Z,16.67
2018-11-21T05:58:37.482Z,16.59
2018-11-21T05:59:37.443Z,16.67
2018-11-21T06:00:37.454Z,16.59
2018-11-21T06:01:37.470Z,16.54
2018-11-21T06:02:37.880Z,16.60
2018-11-21T06:03:37.419Z,16.67
2018-11-21T06:04:37.418Z,16.54
2018-11-21T06:05:37.393Z,16.66
2018-11-21T06:06:37.380Z,16.63
2018-11-21T06:07:37.362Z,16.57
2018-11-21T06:08:37.702Z,16.62
2018-11-21T06:09:37.327Z,16.59
2018-11-21T06:10:37.344Z,16.55
2018-11-21T06:11:37.338Z,16.52
2018-11-21T06:12:37.299Z,16.60
2018-11-21T06:13:37.298Z,16.63
2018-11-21T06:14:37.646Z,16.65
2018-11-21T06:15:37.286Z,16.59
2018-11-21T06:16:37.252Z,16.59
2018-11-21T06:17:37.252Z,16.55
2018-11-21T06:18:37.272Z,16.67
2018-11-21T06:19:37.241Z,16.66
2018-11-21T06:20:39.222Z,16.63
2018-11-21T06:21:37.246Z,16.69
2018-11-21T06:22:37.186Z,16.67
2018-11-21T06:23:37.185Z,16.63
2018-11-21T06:24:37.190Z,16.67
2018-11-21T06:25:37.181Z,16.66
2018-11-21T06:26:37.848Z,16.66
2018-11-21T06:27:37.145Z,16.67
2018-11-21T06:28:37.141Z,16.67
2018-11-21T06:29:37.128Z,16.66
2018-11-21T06:30:37.103Z,16.69
2018-11-21T06:31:37.092Z,16.67
2018-11-21T06:32:39.481Z,16.70
2018-11-21T06:33:37.087Z,16.67
2018-11-21T06:34:37.058Z,16.69
2018-11-21T06:35:37.054Z,16.73
2018-11-21T06:36:37.091Z,16.80
2018-11-21T06:37:37.035Z,16.77
2018-11-21T06:38:37.364Z,16.78
2018-11-21T06:39:37.015Z,16.75
2018-11-21T06:40:36.993Z,16.80
2018-11-21T06:41:37.002Z,16.85
2018-11-21T06:42:36.964Z,16.84
2018-11-21T06:43:36.960Z,16.87
2018-11-21T06:44:37.307Z,16.82
2018-11-21T06:45:36.933Z,16.80
2018-11-21T06:46:36.915Z,16.80
2018-11-21T06:47:36.924Z,16.77
2018-11-21T06:48:36.895Z,16.72
2018-11-21T06:49:37.249Z,16.75
2018-11-21T06:50:36.893Z,16.80
2018-11-21T06:51:36.872Z,16.70
2018-11-21T06:52:36.867Z,16.73
2018-11-21T06:53:36.828Z,16.72
2018-11-21T06:54:38.776Z,16.69
2018-11-21T06:55:36.840Z,16.75
2018-11-21T06:56:36.825Z,16.73
2018-11-21T06:57:36.798Z,16.80
2018-11-21T06:58:36.797Z,16.82
2018-11-21T06:59:36.794Z,16.88
2018-11-21T07:00:37.671Z,16.75
2018-11-21T07:01:36.745Z,16.80
2018-11-21T07:02:36.731Z,16.75
2018-11-21T07:03:36.751Z,16.72
2018-11-21T07:04:36.744Z,16.70
2018-11-21T07:05:36.719Z,16.69
2018-11-21T07:06:40.654Z,16.67
2018-11-21T07:07:36.696Z,16.81
2018-11-21T07:08:36.668Z,16.72
2018-11-21T07:09:36.685Z,16.72
2018-11-21T07:10:36.664Z,16.63
2018-11-21T07:11:36.640Z,16.73
2018-11-21T07:12:36.983Z,16.78
2018-11-21T07:13:36.612Z,16.69
2018-11-21T07:14:36.617Z,16.73
2018-11-21T07:15:36.606Z,16.69
2018-11-21T07:16:36.631Z,16.77
2018-11-21T07:17:36.945Z,16.75
2018-11-21T07:18:36.616Z,16.80
2018-11-21T07:19:36.554Z,16.80
2018-11-21T07:20:36.532Z,16.80
2018-11-21T07:21:36.526Z,16.78
2018-11-21T07:22:36.974Z,16.78
2018-11-21T07:23:36.510Z,16.77
2018-11-21T07:24:36.515Z,16.77
2018-11-21T07:25:36.480Z,16.81
2018-11-21T07:26:36.472Z,16.87
2018-11-21T07:27:36.485Z,16.90
2018-11-21T07:28:40.015Z,16.82
2018-11-21T07:29:36.438Z,16.85
2018-11-21T07:30:36.437Z,16.87
2018-11-21T07:31:36.407Z,16.84
2018-11-21T07:32:36.423Z,16.87
2018-11-21T07:33:36.409Z,16.80
2018-11-21T07:34:37.002Z,16.77
2018-11-21T07:35:36.386Z,16.81
2018-11-21T07:36:36.364Z,16.80
2018-11-21T07:37:36.368Z,16.82
2018-11-21T07:38:36.347Z,16.70
2018-11-21T07:39:36.331Z,16.77
2018-11-21T07:40:36.785Z,16.77
2018-11-21T07:41:36.305Z,16.81
2018-11-21T07:42:36.298Z,16.84
2018-11-21T07:43:36.297Z,16.81
2018-11-21T07:44:36.273Z,16.85
2018-11-21T07:45:36.277Z,16.75
2018-11-21T07:46:37.009Z,16.82
2018-11-21T07:47:36.290Z,16.87
2018-11-21T07:48:36.228Z,16.80
2018-11-21T07:49:36.216Z,16.90
2018-11-21T07:50:36.204Z,16.87
2018-11-21T07:51:36.214Z,16.85
2018-11-21T07:52:36.548Z,16.88
2018-11-21T07:53:36.186Z,16.84
2018-11-21T07:54:36.231Z,16.96
2018-11-21T07:55:36.177Z,16.95
2018-11-21T07:56:36.164Z,16.98
2018-11-21T07:57:36.147Z,16.96
2018-11-21T07:58:38.286Z,16.95
2018-11-21T07:59:36.098Z,16.99
2018-11-21T08:00:36.090Z,17.09
2018-11-21T08:01:36.102Z,17.00
2018-11-21T08:02:36.092Z,17.02
2018-11-21T08:03:36.083Z,17.02
2018-11-21T08:04:38.057Z,17.06
2018-11-21T08:05:36.065Z,17.05
2018-11-21T08:06:36.016Z,17.00
2018-11-21T08:07:36.023Z,16.99
2018-11-21T08:08:36.009Z,17.03
2018-11-21T08:09:35.996Z,17.02
2018-11-21T08:10:36.350Z,17.02
2018-11-21T08:11:35.993Z,16.95
2018-11-21T08:12:35.960Z,17.02
2018-11-21T08:13:35.968Z,16.98
2018-11-21T08:14:35.958Z,16.99
2018-11-21T08:15:36.393Z,16.95
2018-11-21T08:16:35.922Z,16.99
2018-11-21T08:17:35.922Z,17.00
2018-11-21T08:18:35.930Z,17.05
2018-11-21T08:19:35.891Z,17.12
2018-11-21T08:20:36.691Z,17.10
2018-11-21T08:21:35.870Z,17.05
2018-11-21T08:22:35.863Z,17.06
2018-11-21T08:23:35.843Z,17.05
2018-11-21T08:24:35.849Z,17.05
2018-11-21T08:25:35.843Z,17.21
2018-11-21T08:26:36.323Z,17.10
2018-11-21T08:27:35.845Z,17.09
2018-11-21T08:28:35.787Z,17.10
2018-11-21T08:29:35.782Z,17.05
2018-11-21T08:30:35.786Z,17.07
2018-11-21T08:31:39.464Z,17.12
2018-11-21T08:32:35.753Z,17.05
2018-11-21T08:33:35.764Z,17.15
2018-11-21T08:34:35.736Z,17.14
2018-11-21T08:35:35.727Z,17.15
2018-11-21T08:36:35.709Z,17.05
2018-11-21T08:37:37.704Z,17.18
2018-11-21T08:38:35.683Z,17.18
2018-11-21T08:39:35.663Z,17.15
2018-11-21T08:40:35.683Z,17.12
2018-11-21T08:41:35.646Z,17.09
2018-11-21T08:42:35.653Z,17.15
2018-11-21T08:43:37.639Z,17.21
2018-11-21T08:44:35.628Z,17.18
2018-11-21T08:45:35.617Z,17.17
2018-11-21T08:46:35.915Z,17.10
2018-11-21T08:47:35.599Z,17.20
2018-11-21T08:48:35.593Z,17.17
2018-11-21T08:49:35.954Z,17.02
2018-11-21T08:50:35.559Z,17.02
2018-11-21T08:51:35.552Z,17.06
2018-11-21T08:52:35.529Z,17.09
2018-11-21T08:53:35.526Z,17.14
2018-11-21T08:54:35.527Z,17.06
2018-11-21T08:55:36.155Z,17.07
2018-11-21T08:56:35.496Z,17.17
2018-11-21T08:57:35.486Z,17.17
2018-11-21T08:58:35.470Z,17.02
2018-11-21T08:59:35.452Z,17.10
2018-11-21T09:00:35.431Z,17.12
2018-11-21T09:01:37.749Z,17.02
2018-11-21T09:02:35.442Z,17.18
2018-11-21T09:03:35.395Z,17.21
2018-11-21T09:04:35.419Z,17.14
2018-11-21T09:05:35.397Z,17.22
2018-11-21T09:06:35.395Z,17.21
2018-11-21T09:07:35.729Z,17.20
2018-11-21T09:08:35.359Z,17.30
2018-11-21T09:09:35.356Z,17.32
2018-11-21T09:10:36.691Z,17.25
2018-11-21T09:11:35.312Z,17.32
2018-11-21T09:12:35.329Z,17.32
2018-11-21T09:13:37.257Z,17.40
2018-11-21T09:14:35.300Z,17.39
2018-11-21T09:15:35.296Z,17.39
2018-11-21T09:16:35.263Z,17.38
2018-11-21T09:17:35.252Z,17.40
2018-11-21T09:18:35.266Z,17.42
2018-11-21T09:19:35.656Z,17.47
2018-11-21T09:20:35.238Z,17.43
2018-11-21T09:21:35.214Z,17.46
2018-11-21T09:22:35.217Z,17.40
2018-11-21T09:23:35.259Z,17.43
2018-11-21T09:24:35.197Z,17.43
2018-11-21T09:25:35.787Z,17.45
2018-11-21T09:26:35.181Z,17.46
2018-11-21T09:27:35.200Z,17.43
2018-11-21T09:28:35.147Z,17.47
2018-11-21T09:29:35.128Z,17.57
2018-11-21T09:30:35.108Z,17.55
2018-11-21T09:31:35.874Z,17.55
2018-11-21T09:32:35.109Z,17.55
2018-11-21T09:33:35.097Z,17.57
2018-11-21T09:34:35.137Z,17.71
2018-11-21T09:35:35.073Z,17.68
2018-11-21T09:36:35.114Z,17.77
2018-11-21T09:37:36.894Z,17.81
2018-11-21T09:38:35.057Z,17.87
2018-11-21T09:39:35.044Z,17.86
2018-11-21T09:40:35.017Z,17.86
2018-11-21T09:41:35.021Z,17.83
2018-11-21T09:42:34.985Z,17.94
2018-11-21T09:43:36.934Z,17.96
2018-11-21T09:44:34.961Z,17.87
2018-11-21T09:45:34.956Z,17.89
2018-11-21T09:46:34.979Z,17.91
2018-11-21T09:47:34.959Z,17.91
2018-11-21T09:48:34.974Z,17.92
2018-11-21T09:49:37.342Z,17.92
2018-11-21T09:50:34.924Z,18.04
2018-11-21T09:51:34.915Z,18.07
2018-11-21T09:52:34.876Z,18.07
2018-11-21T09:53:34.932Z,18.05
2018-11-21T09:54:34.900Z,18.11
2018-11-21T09:55:40.378Z,18.11
2018-11-21T09:56:34.863Z,18.13
2018-11-21T09:57:34.829Z,18.16
2018-11-21T09:58:34.851Z,18.19
2018-11-21T09:59:34.811Z,18.20
2018-11-21T10:00:34.813Z,18.34
2018-11-21T10:01:38.323Z,18.29
2018-11-21T10:02:34.841Z,18.25
2018-11-21T10:03:34.782Z,18.28
2018-11-21T10:04:34.778Z,18.28
2018-11-21T10:05:34.774Z,18.20
2018-11-21T10:06:34.752Z,18.20
2018-11-21T10:07:36.832Z,18.25
2018-11-21T10:08:34.733Z,18.29
2018-11-21T10:09:34.715Z,18.31
2018-11-21T10:10:34.710Z,18.34
2018-11-21T10:11:34.709Z,18.41
2018-11-21T10:12:34.753Z,18.38
2018-11-21T10:13:36.574Z,18.36
2018-11-21T10:14:34.719Z,18.42
2018-11-21T10:15:34.682Z,18.46
2018-11-21T10:16:34.644Z,18.39
2018-11-21T10:17:34.653Z,18.50
2018-11-21T10:18:34.683Z,18.54
2018-11-21T10:19:34.977Z,18.51
2018-11-21T10:20:34.617Z,18.66
2018-11-21T10:21:34.615Z,18.59
2018-11-21T10:22:34.608Z,18.66
2018-11-21T10:23:34.580Z,18.69
2018-11-21T10:24:38.181Z,18.69
2018-11-21T10:25:34.579Z,18.64
2018-11-21T10:26:34.572Z,18.69
2018-11-21T10:27:34.547Z,18.69
2018-11-21T10:28:34.540Z,18.65
2018-11-21T10:29:35.432Z,18.71
2018-11-21T10:30:38.175Z,18.66
2018-11-21T10:31:34.517Z,18.65
2018-11-21T10:32:34.498Z,18.69
2018-11-21T10:33:34.490Z,18.72
2018-11-21T10:34:34.484Z,18.66
2018-11-21T10:35:36.054Z,18.68
2018-11-21T10:36:34.465Z,18.68
2018-11-21T10:37:34.462Z,18.64
2018-11-21T10:38:34.437Z,18.65
2018-11-21T10:39:34.442Z,18.62
2018-11-21T10:40:34.431Z,18.69
2018-11-21T10:41:34.429Z,18.72
2018-11-21T10:42:34.394Z,18.83
2018-11-21T10:43:34.401Z,18.83
2018-11-21T10:44:34.392Z,18.86
2018-11-21T10:45:34.371Z,18.89
2018-11-21T10:46:34.370Z,18.86
2018-11-21T10:47:34.335Z,18.90
2018-11-21T10:48:34.367Z,19.02
2018-11-21T10:49:34.355Z,18.87
2018-11-21T10:50:34.338Z,18.90
2018-11-21T10:51:34.320Z,18.96
2018-11-21T10:52:34.304Z,18.91
2018-11-21T10:53:34.300Z,18.94
2018-11-21T10:54:34.287Z,19.02
2018-11-21T10:55:34.295Z,19.10
2018-11-21T10:56:34.276Z,19.05
2018-11-21T10:57:34.268Z,19.05
2018-11-21T10:58:34.238Z,19.12
2018-11-21T10:59:34.238Z,19.05
2018-11-21T11:00:34.279Z,19.05
2018-11-21T11:01:34.220Z,19.07
2018-11-21T11:02:34.195Z,19.16
2018-11-21T11:03:34.191Z,19.20
2018-11-21T11:04:34.196Z,19.15
2018-11-21T11:05:34.225Z,19.16
2018-11-21T11:06:34.171Z,19.24
2018-11-21T11:07:39.468Z,19.28
2018-11-21T11:08:34.195Z,19.38
2018-11-21T11:09:34.136Z,19.43
2018-11-21T11:10:34.147Z,19.49
2018-11-21T11:11:34.135Z,19.52
2018-11-21T11:12:34.121Z,19.53
2018-11-21T11:13:35.362Z,19.52
2018-11-21T11:14:34.101Z,19.49
2018-11-21T11:15:34.091Z,19.60
2018-11-21T11:16:34.076Z,19.68
2018-11-21T11:17:34.059Z,19.70
2018-11-21T11:18:34.055Z,19.70
2018-11-21T11:19:34.101Z,19.67
2018-11-21T11:20:34.038Z,19.82
2018-11-21T11:21:34.084Z,19.72
2018-11-21T11:22:34.037Z,19.75
2018-11-21T11:23:34.037Z,19.75
2018-11-21T11:24:34.008Z,19.82
2018-11-21T11:25:34.011Z,19.62
2018-11-21T11:26:33.985Z,19.64
2018-11-21T11:27:33.974Z,19.62
2018-11-21T11:28:33.979Z,19.61
2018-11-21T11:29:33.969Z,19.57
2018-11-21T11:30:33.951Z,19.55
2018-11-21T11:31:33.934Z,19.58
2018-11-21T11:32:33.935Z,19.61
2018-11-21T11:33:33.944Z,19.70
2018-11-21T11:34:33.919Z,19.78
2018-11-21T11:35:33.922Z,19.61
2018-11-21T11:36:33.919Z,19.61
2018-11-21T11:37:33.892Z,19.64
2018-11-21T11:38:33.878Z,19.62
2018-11-21T11:39:34.419Z,19.72
2018-11-21T11:40:33.878Z,19.78
2018-11-21T11:41:33.850Z,19.87
2018-11-21T11:42:33.851Z,19.85
2018-11-21T11:43:33.840Z,19.80
2018-11-21T11:44:33.874Z,19.82
2018-11-21T11:45:33.855Z,19.97
2018-11-21T11:46:33.831Z,20.05
2018-11-21T11:47:33.853Z,20.13
2018-11-21T11:48:33.785Z,20.12
2018-11-21T11:49:33.834Z,20.25
2018-11-21T11:50:33.794Z,20.19
2018-11-21T11:51:33.778Z,20.17
2018-11-21T11:52:33.774Z,20.19
2018-11-21T11:53:33.757Z,20.16
2018-11-21T11:54:33.748Z,20.12
2018-11-21T11:55:33.748Z,20.01
2018-11-21T11:56:33.742Z,20.05
2018-11-21T11:57:33.723Z,19.90
2018-11-21T11:58:33.714Z,19.95
2018-11-21T11:59:33.697Z,19.90
2018-11-21T12:00:33.679Z,20.04
2018-11-21T12:01:33.697Z,20.04
2018-11-21T12:02:33.690Z,20.12
2018-11-21T12:03:33.676Z,20.12
2018-11-21T12:04:33.675Z,20.12
2018-11-21T12:05:33.656Z,20.19
2018-11-21T12:06:33.669Z,20.22
2018-11-21T12:07:33.662Z,20.17
2018-11-21T12:08:33.625Z,20.19
2018-11-21T12:09:33.626Z,20.33
2018-11-21T12:10:33.621Z,20.20
2018-11-21T12:11:33.654Z,20.25
2018-11-21T12:12:40.013Z,20.17
2018-11-21T12:13:33.595Z,20.02
2018-11-21T12:14:33.600Z,20.08
2018-11-21T12:15:33.612Z,20.07
2018-11-21T12:16:33.569Z,20.07
2018-11-21T12:17:33.561Z,20.19
2018-11-21T12:18:33.546Z,20.17
2018-11-21T12:19:33.541Z,20.17
2018-11-21T12:20:33.547Z,20.26
2018-11-21T12:21:33.528Z,20.35
2018-11-21T12:22:33.508Z,20.34
2018-11-21T12:23:33.525Z,20.35
2018-11-21T12:24:33.501Z,20.35
2018-11-21T12:25:33.503Z,20.53
2018-11-21T12:26:33.464Z,20.50
2018-11-21T12:27:33.713Z,20.56
2018-11-21T12:28:33.464Z,20.58
2018-11-21T12:29:33.464Z,20.66
2018-11-21T12:30:33.419Z,20.69
2018-11-21T12:31:33.425Z,20.75
2018-11-21T12:32:33.546Z,20.73
2018-11-21T12:33:33.465Z,20.81
2018-11-21T12:34:33.458Z,20.83
2018-11-21T12:35:33.399Z,20.90
2018-11-21T12:36:33.409Z,20.91
2018-11-21T12:37:33.382Z,20.96
2018-11-21T12:38:33.371Z,20.91
2018-11-21T12:39:33.380Z,20.88
2018-11-21T12:40:33.409Z,20.96
2018-11-21T12:41:33.366Z,20.94
2018-11-21T12:42:33.353Z,20.66
2018-11-21T12:43:33.389Z,20.71
2018-11-21T12:44:33.328Z,20.54
2018-11-21T12:45:33.324Z,20.38
2018-11-21T12:46:33.322Z,20.41
2018-11-21T12:47:33.302Z,20.41
2018-11-21T12:48:33.312Z,20.50
2018-11-21T12:49:33.332Z,20.42
2018-11-21T12:50:33.260Z,20.57
2018-11-21T12:51:33.275Z,20.51
2018-11-21T12:52:33.275Z,20.56